createdAt,value
2018-11-03T00:01:12.500Z,87.84
2018-11-03T00:06:21.406Z,87.90
2018-11-03T00:08:49.933Z,88.75
2018-11-03T00:11:18.346Z,88.26
2018-11-03T00:13:46.779Z,88.75
2018-11-03T00:16:15.172Z,88.85
2018-11-03T00:18:43.634Z,89.02
2018-11-03T00:21:12.129Z,88.78
2018-11-03T00:23:40.605Z,88.88
2018-11-03T00:26:09.056Z,88.76
2018-11-03T00:28:37.580Z,88.79
2018-11-03T00:31:06.077Z,87.77
2018-11-03T00:33:34.585Z,87.43
2018-11-03T00:36:03.056Z,88.00
2018-11-03T00:38:31.516Z,87.87
2018-11-03T00:41:00.092Z,87.92
2018-11-03T00:43:28.555Z,87.43
2018-11-03T00:45:57.055Z,88.14
2018-11-03T00:48:25.494Z,88.51
2018-11-03T00:50:54.041Z,88.06
2018-11-03T00:53:22.551Z,88.77
2018-11-03T00:55:51.015Z,88.43
2018-11-03T00:58:19.485Z,88.73
2018-11-03T01:00:47.880Z,88.15
2018-11-03T01:03:16.266Z,88.22
2018-11-03T01:05:44.742Z,88.46
2018-11-03T01:08:13.220Z,88.61
2018-11-03T01:10:41.646Z,87.81
2018-11-03T01:13:10.058Z,88.38
2018-11-03T01:15:38.499Z,88.47
2018-11-03T01:18:06.985Z,89.36
2018-11-03T01:20:35.425Z,88.83
2018-11-03T01:23:03.893Z,88.25
2018-11-03T01:25:32.278Z,88.64
2018-11-03T01:28:00.676Z,88.77
2018-11-03T01:30:29.111Z,88.61
2018-11-03T01:32:57.528Z,88.04
2018-11-03T01:35:25.994Z,88.50
2018-11-03T01:37:54.443Z,89.18
2018-11-03T01:40:22.846Z,89.16
2018-11-03T01:42:51.345Z,88.40
2018-11-03T01:45:19.809Z,87.92
2018-11-03T01:47:48.317Z,88.28
2018-11-03T01:50:16.718Z,88.72
2018-11-03T01:52:45.191Z,89.18
2018-11-03T01:55:13.611Z,89.43
2018-11-03T01:57:42.147Z,89.63
2018-11-03T02:00:11.462Z,89.51
2018-11-03T02:02:39.970Z,89.49
2018-11-03T02:05:09.084Z,89.40
2018-11-03T02:07:37.537Z,88.85
2018-11-03T02:10:07.387Z,89.15
2018-11-03T02:12:35.849Z,89.30
2018-11-03T02:15:04.354Z,89.01
2018-11-03T02:17:32.885Z,88.65
2018-11-03T02:20:01.297Z,88.87
2018-11-03T02:22:29.667Z,89.37
2018-11-03T02:24:58.070Z,89.40
2018-11-03T02:27:26.496Z,89.15
2018-11-03T02:29:54.889Z,89.19
2018-11-03T02:32:23.316Z,88.54
2018-11-03T02:34:51.746Z,89.26
2018-11-03T02:37:20.154Z,89.39
2018-11-03T02:39:48.595Z,89.36
2018-11-03T02:42:17.154Z,89.36
2018-11-03T02:44:45.583Z,89.85
2018-11-03T02:47:14.035Z,89.36
2018-11-03T02:49:42.474Z,90.02
2018-11-03T02:52:11.045Z,90.09
2018-11-03T02:54:39.488Z,90.15
2018-11-03T02:57:07.892Z,90.04
2018-11-03T02:59:36.347Z,90.22
2018-11-03T03:02:05.234Z,90.28
2018-11-03T03:04:34.936Z,89.56
2018-11-03T03:07:03.445Z,90.56
2018-11-03T03:09:31.902Z,89.53
2018-11-03T03:12:00.347Z,90.33
2018-11-03T03:14:28.750Z,89.85
2018-11-03T03:16:57.141Z,89.59
2018-11-03T03:19:25.553Z,90.15
2018-11-03T03:21:53.994Z,90.28
2018-11-03T03:24:22.412Z,90.56
2018-11-03T03:26:50.836Z,90.14
2018-11-03T03:29:19.313Z,89.70
2018-11-03T03:31:47.761Z,90.25
2018-11-03T03:34:16.141Z,90.38
2018-11-03T03:36:44.518Z,89.88
2018-11-03T03:39:12.932Z,89.66
2018-11-03T03:41:41.384Z,89.81
2018-11-03T03:44:09.817Z,90.10
2018-11-03T03:46:38.314Z,89.75
2018-11-03T03:49:06.768Z,90.44
2018-11-03T03:51:35.192Z,89.93
2018-11-03T03:54:03.753Z,89.80
2018-11-03T03:56:32.186Z,89.85
2018-11-03T03:59:00.959Z,89.98
2018-11-03T04:01:29.373Z,90.16
2018-11-03T04:03:57.792Z,90.40
2018-11-03T04:06:26.229Z,89.92
2018-11-03T04:08:54.634Z,90.64
2018-11-03T04:11:23.092Z,90.62
2018-11-03T04:13:51.539Z,90.58
2018-11-03T04:16:20.273Z,90.61
2018-11-03T04:18:48.684Z,90.30
2018-11-03T04:21:27.030Z,89.06
2018-11-03T04:23:55.604Z,89.46
2018-11-03T04:26:24.049Z,89.46
2018-11-03T04:28:52.487Z,90.32
2018-11-03T04:31:20.950Z,90.36
2018-11-03T04:33:49.394Z,90.18
2018-11-03T04:36:17.917Z,90.01
2018-11-03T04:38:46.356Z,90.41
2018-11-03T04:41:14.786Z,90.56
2018-11-03T04:43:43.209Z,90.57
2018-11-03T04:46:11.615Z,90.26
2018-11-03T04:48:40.082Z,89.43
2018-11-03T04:51:09.024Z,89.49
2018-11-03T04:53:37.423Z,89.94
2018-11-03T04:56:05.856Z,89.51
2018-11-03T04:58:34.277Z,89.81
2018-11-03T05:01:02.703Z,90.24
2018-11-03T05:03:31.175Z,89.72
2018-11-03T05:05:59.577Z,89.76
2018-11-03T05:08:27.999Z,89.85
2018-11-03T05:10:56.420Z,90.32
2018-11-03T05:13:24.800Z,90.51
2018-11-03T05:15:53.204Z,90.28
2018-11-03T05:18:21.655Z,90.00
2018-11-03T05:20:50.069Z,90.38
2018-11-03T05:23:18.497Z,90.25
2018-11-03T05:25:46.935Z,90.60
2018-11-03T05:28:15.396Z,89.90
2018-11-03T05:30:43.792Z,89.92
2018-11-03T05:33:12.166Z,89.96
2018-11-03T05:35:40.567Z,90.57
2018-11-03T05:38:08.998Z,90.60
2018-11-03T05:40:37.450Z,91.00
2018-11-03T05:43:06.175Z,90.82
2018-11-03T05:45:34.600Z,90.26
2018-11-03T05:48:03.105Z,90.62
2018-11-03T05:50:31.542Z,90.55
2018-11-03T05:53:00.066Z,90.25
2018-11-03T05:55:28.502Z,90.18
2018-11-03T05:57:56.915Z,90.24
2018-11-03T06:00:27.281Z,90.74
2018-11-03T06:02:57.082Z,90.18
2018-11-03T06:05:25.523Z,90.49
2018-11-03T06:07:54.018Z,90.26
2018-11-03T06:10:22.442Z,90.04
2018-11-03T06:12:50.894Z,90.17
2018-11-03T06:15:19.532Z,90.57
2018-11-03T06:17:47.924Z,90.54
2018-11-03T06:20:16.363Z,90.19
2018-11-03T06:22:44.781Z,90.83
2018-11-03T06:25:13.245Z,90.80
2018-11-03T06:27:41.653Z,90.75
2018-11-03T06:30:11.324Z,90.33
2018-11-03T06:32:39.984Z,90.68
2018-11-03T06:35:09.530Z,90.84
2018-11-03T06:37:37.987Z,91.05
2018-11-03T06:40:07.712Z,90.84
2018-11-03T06:42:36.778Z,91.23
2018-11-03T06:45:06.065Z,90.18
2018-11-03T06:47:34.525Z,90.50
2018-11-03T06:50:02.980Z,90.94
2018-11-03T06:52:31.364Z,91.00
2018-11-03T06:54:59.767Z,91.31
2018-11-03T06:57:28.336Z,91.51
2018-11-03T06:59:56.740Z,91.21
2018-11-03T07:02:25.157Z,91.66
2018-11-03T07:04:53.601Z,91.80
2018-11-03T07:07:22.065Z,90.95
2018-11-03T07:09:50.533Z,90.82
2018-11-03T07:12:19.057Z,91.24
2018-11-03T07:14:47.448Z,90.85
2018-11-03T07:17:16.312Z,91.02
2018-11-03T07:19:44.814Z,91.28
2018-11-03T07:22:13.276Z,90.95
2018-11-03T07:24:41.765Z,91.26
2018-11-03T07:27:10.227Z,91.76
2018-11-03T07:29:38.714Z,91.16
2018-11-03T07:32:07.359Z,91.62
2018-11-03T07:34:35.765Z,92.11
2018-11-03T07:37:04.229Z,92.26
2018-11-03T07:39:32.663Z,91.70
2018-11-03T07:42:01.221Z,91.91
2018-11-03T07:44:29.660Z,91.89
2018-11-03T07:46:58.030Z,91.76
2018-11-03T07:49:26.528Z,91.85
2018-11-03T07:51:54.946Z,91.62
2018-11-03T07:54:23.415Z,91.96
2018-11-03T07:56:51.795Z,91.92
2018-11-03T07:59:20.215Z,91.68
2018-11-03T08:01:48.708Z,91.69
2018-11-03T08:04:17.148Z,91.96
2018-11-03T08:06:45.656Z,92.24
2018-11-03T08:09:14.163Z,92.08
2018-11-03T08:11:42.572Z,91.95
2018-11-03T08:14:11.066Z,92.05
2018-11-03T08:16:39.492Z,91.85
2018-11-03T08:19:07.980Z,92.11
2018-11-03T08:21:36.429Z,91.79
2018-11-03T08:24:05.100Z,92.17
2018-11-03T08:26:33.492Z,92.65
2018-11-03T08:29:01.906Z,91.82
2018-11-03T08:31:30.387Z,92.16
2018-11-03T08:33:58.784Z,92.20
2018-11-03T08:36:27.223Z,92.12
2018-11-03T08:38:55.644Z,92.72
2018-11-03T08:41:24.084Z,92.50
2018-11-03T08:43:52.568Z,92.46
2018-11-03T08:46:21.003Z,92.21
2018-11-03T08:48:49.488Z,92.79
2018-11-03T08:51:17.849Z,92.32
2018-11-03T08:53:46.261Z,92.45
2018-11-03T08:56:14.736Z,92.09
2018-11-03T08:58:43.179Z,92.16
2018-11-03T09:01:11.625Z,92.60
2018-11-03T09:03:40.042Z,92.44
2018-11-03T09:06:08.510Z,92.71
2018-11-03T09:08:36.968Z,92.88
2018-11-03T09:11:05.595Z,93.70
2018-11-03T09:13:34.052Z,93.57
2018-11-03T09:16:02.548Z,92.94
2018-11-03T09:18:31.033Z,93.06
2018-11-03T09:20:59.532Z,92.46
2018-11-03T09:23:27.990Z,92.74
2018-11-03T09:25:56.456Z,92.37
2018-11-03T09:28:24.926Z,92.62
2018-11-03T09:30:53.367Z,92.32
2018-11-03T09:33:21.766Z,92.23
2018-11-03T09:35:50.152Z,92.08
2018-11-03T09:38:18.645Z,91.58
2018-11-03T09:40:47.047Z,91.49
2018-11-03T09:43:15.564Z,91.10
2018-11-03T09:45:43.988Z,91.21
2018-11-03T09:48:12.464Z,91.74
2018-11-03T09:50:40.962Z,91.11
2018-11-03T09:53:09.381Z,91.27
2018-11-03T09:55:37.828Z,91.41
2018-11-03T09:58:06.257Z,91.18
2018-11-03T10:00:34.716Z,90.85
2018-11-03T10:03:03.163Z,91.00
2018-11-03T10:05:31.586Z,91.12
2018-11-03T10:08:00.180Z,91.13
2018-11-03T10:10:28.598Z,90.94
2018-11-03T10:12:57.077Z,91.27
2018-11-03T10:15:25.536Z,90.66
2018-11-03T10:17:53.984Z,90.85
2018-11-03T10:20:22.519Z,90.94
2018-11-03T10:22:51.100Z,90.58
2018-11-03T10:25:19.963Z,90.42
2018-11-03T10:27:48.896Z,90.43
2018-11-03T10:30:18.082Z,90.30
2018-11-03T10:32:47.183Z,89.61
2018-11-03T10:35:15.824Z,90.50
2018-11-03T10:37:44.664Z,89.11
2018-11-03T10:40:14.968Z,88.63
2018-11-03T10:42:43.716Z,88.79
2018-11-03T10:45:13.453Z,89.19
2018-11-03T10:47:42.105Z,89.13
2018-11-03T10:50:15.642Z,89.26
2018-11-03T10:52:44.882Z,88.68
2018-11-03T10:55:14.776Z,88.91
2018-11-03T10:57:43.560Z,88.90
2018-11-03T11:00:20.625Z,88.54
2018-11-03T11:02:54.280Z,88.02
2018-11-03T11:05:28.129Z,88.15
2018-11-03T11:08:01.884Z,88.14
2018-11-03T11:10:35.643Z,87.48
2018-11-03T11:13:20.361Z,88.29
2018-11-03T11:15:49.853Z,88.33
2018-11-03T11:18:18.274Z,88.03
2018-11-03T11:20:46.720Z,87.87
2018-11-03T11:23:15.174Z,87.62
2018-11-03T11:25:43.641Z,88.05
2018-11-03T11:28:12.139Z,88.09
2018-11-03T11:30:43.109Z,88.13
2018-11-03T11:33:12.934Z,88.05
2018-11-03T11:35:41.724Z,88.06
2018-11-03T11:38:10.856Z,88.22
2018-11-03T11:40:39.853Z,87.41
2018-11-03T11:43:09.850Z,87.40
2018-11-03T11:45:39.597Z,87.11
2018-11-03T11:48:08.053Z,87.07
2018-11-03T11:50:36.549Z,86.90
2018-11-03T11:53:05.361Z,86.34
2018-11-03T11:55:33.815Z,86.50
2018-11-03T11:58:02.661Z,86.84
2018-11-03T12:00:31.191Z,86.52
2018-11-03T12:02:59.663Z,85.47
2018-11-03T12:05:28.168Z,85.14
2018-11-03T12:07:56.716Z,85.12
2018-11-03T12:10:25.200Z,85.25
2018-11-03T12:12:53.700Z,84.96
2018-11-03T12:15:22.211Z,84.04
2018-11-03T12:17:50.643Z,83.84
2018-11-03T12:20:19.104Z,83.97
2018-11-03T12:22:47.575Z,84.13
2018-11-03T12:25:16.025Z,82.86
2018-11-03T12:27:44.513Z,83.89
2018-11-03T12:30:14.947Z,83.60
2018-11-03T12:32:43.498Z,83.15
2018-11-03T12:35:12.094Z,82.58
2018-11-03T12:37:40.913Z,82.97
2018-11-03T12:40:11.768Z,82.42
2018-11-03T12:42:40.145Z,82.53
2018-11-03T12:45:09.248Z,82.09
2018-11-03T12:47:37.815Z,82.73
2018-11-03T12:50:08.660Z,82.67
2018-11-03T12:52:37.121Z,82.42
2018-11-03T12:55:06.876Z,81.25
2018-11-03T12:57:35.365Z,80.79
2018-11-03T13:00:03.953Z,79.19
2018-11-03T13:02:32.438Z,79.09
2018-11-03T13:05:00.909Z,78.71
2018-11-03T13:07:29.381Z,78.07
2018-11-03T13:09:57.899Z,77.58
2018-11-03T13:12:26.341Z,77.70
2018-11-03T13:14:54.781Z,76.53
2018-11-03T13:17:23.262Z,76.16
2018-11-03T13:19:51.685Z,75.46
2018-11-03T13:22:20.137Z,77.35
2018-11-03T13:24:48.835Z,77.26
2018-11-03T13:27:17.295Z,78.25
2018-11-03T13:29:45.747Z,77.56
2018-11-03T13:32:14.196Z,78.63
2018-11-03T13:34:42.753Z,77.76
2018-11-03T13:37:11.217Z,77.37
2018-11-03T13:39:39.608Z,77.75
2018-11-03T13:42:08.147Z,78.39
2018-11-03T13:44:36.597Z,78.69
2018-11-03T13:47:05.166Z,78.90
2018-11-03T13:49:33.568Z,79.56
2018-11-03T13:52:01.990Z,79.28
2018-11-03T13:54:30.451Z,79.33
2018-11-03T13:56:58.929Z,79.26
2018-11-03T13:59:27.335Z,80.22
2018-11-03T14:01:56.087Z,79.50
2018-11-03T14:04:24.596Z,80.79
2018-11-03T14:06:53.110Z,80.61
2018-11-03T14:09:21.536Z,80.37
2018-11-03T14:11:49.948Z,80.18
2018-11-03T14:14:18.371Z,79.40
2018-11-03T14:16:46.848Z,79.57
2018-11-03T14:19:15.275Z,79.17
2018-11-03T14:21:43.763Z,80.76
2018-11-03T14:24:12.185Z,80.82
2018-11-03T14:26:40.625Z,80.32
2018-11-03T14:29:09.190Z,80.84
2018-11-03T14:31:37.593Z,80.77
2018-11-03T14:34:06.290Z,80.81
2018-11-03T14:36:34.725Z,80.26
2018-11-03T14:39:03.281Z,80.00
2018-11-03T14:41:31.773Z,80.71
2018-11-03T14:44:00.191Z,80.04
2018-11-03T14:46:28.626Z,80.10
2018-11-03T14:48:57.134Z,80.57
2018-11-03T14:51:25.541Z,80.36
2018-11-03T14:53:53.989Z,80.79
2018-11-03T14:56:22.435Z,81.18
2018-11-03T14:58:50.890Z,80.29
2018-11-03T15:01:19.354Z,80.28
2018-11-03T15:03:47.898Z,81.06
2018-11-03T15:06:16.434Z,80.98
2018-11-03T15:08:44.829Z,81.34
2018-11-03T15:11:13.285Z,80.95
2018-11-03T15:13:41.784Z,81.24
2018-11-03T15:16:10.187Z,81.20
2018-11-03T15:18:38.590Z,81.28
2018-11-03T15:21:07.086Z,81.87
2018-11-03T15:23:35.768Z,81.38
2018-11-03T15:26:04.259Z,81.48
2018-11-03T15:28:32.724Z,82.54
2018-11-03T15:31:01.198Z,82.80
2018-11-03T15:33:29.693Z,82.64
2018-11-03T15:35:58.160Z,82.72
2018-11-03T15:38:26.568Z,83.46
2018-11-03T15:40:55.026Z,83.62
2018-11-03T15:43:23.551Z,83.46
2018-11-03T15:45:52.232Z,83.38
2018-11-03T15:48:20.702Z,84.44
2018-11-03T15:50:51.797Z,83.70
2018-11-03T15:53:20.591Z,84.30
2018-11-03T15:55:49.017Z,84.56
2018-11-03T15:58:17.452Z,85.06
2018-11-03T16:00:45.876Z,85.07
2018-11-03T16:03:14.315Z,85.77
2018-11-03T16:05:42.738Z,85.86
2018-11-03T16:08:11.186Z,86.01
2018-11-03T16:10:39.646Z,86.67
2018-11-03T16:13:08.250Z,86.51
2018-11-03T16:15:36.734Z,87.19
2018-11-03T16:18:05.358Z,87.15
2018-11-03T16:20:33.868Z,86.91
2018-11-03T16:23:02.373Z,87.96
2018-11-03T16:25:30.799Z,87.91
2018-11-03T16:27:59.238Z,88.25
2018-11-03T16:30:27.734Z,88.22
2018-11-03T16:32:56.109Z,88.17
2018-11-03T16:35:24.576Z,88.43
2018-11-03T16:37:52.969Z,88.46
2018-11-03T16:40:21.413Z,88.24
2018-11-03T16:42:49.820Z,88.72
2018-11-03T16:45:18.260Z,88.40
2018-11-03T16:47:46.784Z,88.79
2018-11-03T16:50:16.236Z,88.56
2018-11-03T16:52:44.874Z,88.62
2018-11-03T16:55:14.111Z,88.58
2018-11-03T16:57:42.518Z,88.48
2018-11-03T17:00:13.964Z,88.70
2018-11-03T17:02:42.742Z,89.20
2018-11-03T17:05:12.419Z,89.24
2018-11-03T17:07:40.852Z,88.76
2018-11-03T17:10:12.768Z,88.99
2018-11-03T17:12:42.616Z,89.32
2018-11-03T17:15:11.356Z,89.23
2018-11-03T17:17:39.932Z,89.01
2018-11-03T17:20:08.769Z,89.88
2018-11-03T17:22:37.542Z,89.54
2018-11-03T17:25:07.173Z,89.93
2018-11-03T17:27:35.619Z,89.74
2018-11-03T17:30:04.445Z,89.25
2018-11-03T17:32:32.977Z,89.39
2018-11-03T17:35:01.399Z,89.83
2018-11-03T17:37:29.813Z,89.68
2018-11-03T17:39:58.333Z,89.73
2018-11-03T17:42:26.782Z,89.49
2018-11-03T17:44:55.214Z,89.41
2018-11-03T17:47:23.663Z,89.19
2018-11-03T17:49:52.164Z,89.21
2018-11-03T17:52:20.773Z,89.04
2018-11-03T17:54:49.247Z,88.96
2018-11-03T17:57:17.774Z,88.97
2018-11-03T17:59:46.187Z,88.96
2018-11-03T18:02:14.648Z,89.49
2018-11-03T18:04:43.075Z,88.40
2018-11-03T18:07:11.520Z,88.87
2018-11-03T18:09:39.930Z,89.17
2018-11-03T18:12:08.348Z,88.79
2018-11-03T18:14:36.794Z,88.81
2018-11-03T18:17:05.541Z,89.16
2018-11-03T18:19:34.020Z,89.40
2018-11-03T18:22:02.405Z,89.11
2018-11-03T18:24:30.883Z,89.67
2018-11-03T18:26:59.501Z,89.26
2018-11-03T18:29:27.919Z,88.94
2018-11-03T18:31:56.372Z,88.89
2018-11-03T18:34:24.849Z,88.91
2018-11-03T18:36:53.355Z,88.10
2018-11-03T18:39:21.829Z,88.19
2018-11-03T18:41:50.258Z,88.74
2018-11-03T18:44:18.696Z,88.70
2018-11-03T18:46:47.224Z,88.06
2018-11-03T18:49:15.606Z,88.58
2018-11-03T18:51:44.100Z,89.21
2018-11-03T18:54:12.587Z,88.91
2018-11-03T18:56:41.045Z,89.23
2018-11-03T18:59:09.514Z,89.32
2018-11-03T19:01:38.000Z,89.13
2018-11-03T19:04:06.492Z,89.02
2018-11-03T19:06:34.931Z,88.73
2018-11-03T19:09:03.638Z,88.93
2018-11-03T19:11:32.049Z,89.20
2018-11-03T19:14:00.490Z,88.43
2018-11-03T19:16:28.946Z,88.33
2018-11-03T19:18:57.559Z,88.83
2018-11-03T19:21:26.004Z,89.05
2018-11-03T19:23:54.482Z,89.16
2018-11-03T19:26:22.928Z,88.80
2018-11-03T19:28:51.403Z,89.13
2018-11-03T19:31:19.850Z,88.76
2018-11-03T19:33:48.316Z,88.67
2018-11-03T19:36:16.755Z,88.81
2018-11-03T19:38:45.174Z,88.67
2018-11-03T19:41:13.610Z,88.44
2018-11-03T19:43:42.000Z,88.17
2018-11-03T19:46:10.437Z,88.18
2018-11-03T19:48:39.515Z,88.27
2018-11-03T19:51:08.001Z,88.72
2018-11-03T19:53:36.480Z,88.58
2018-11-03T19:56:05.229Z,88.41
2018-11-03T19:58:33.761Z,88.95
2018-11-03T20:01:02.183Z,88.96
2018-11-03T20:03:30.630Z,88.94
2018-11-03T20:05:59.033Z,88.02
2018-11-03T20:08:27.471Z,88.78
2018-11-03T20:10:55.902Z,88.57
2018-11-03T20:13:24.375Z,87.92
2018-11-03T20:15:52.905Z,88.08
2018-11-03T20:18:21.387Z,88.55
2018-11-03T20:20:49.780Z,88.89
2018-11-03T20:23:18.191Z,88.42
2018-11-03T20:25:46.657Z,88.50
2018-11-03T20:28:15.097Z,88.28
2018-11-03T20:30:43.550Z,88.59
2018-11-03T20:33:11.997Z,88.43
2018-11-03T20:35:40.455Z,88.62
2018-11-03T20:38:08.927Z,88.46
2018-11-03T20:40:37.336Z,88.50
2018-11-03T20:43:05.878Z,88.95
2018-11-03T20:45:34.284Z,87.74
2018-11-03T20:48:02.786Z,88.26
2018-11-03T20:50:31.225Z,88.86
2018-11-03T20:52:59.681Z,88.50
2018-11-03T20:55:28.155Z,88.74
2018-11-03T20:57:56.657Z,88.57
2018-11-03T21:00:25.128Z,88.91
2018-11-03T21:02:54.475Z,88.79
2018-11-03T21:05:22.897Z,88.36
2018-11-03T21:07:51.398Z,89.25
2018-11-03T21:10:19.833Z,89.28
2018-11-03T21:12:48.274Z,88.78
2018-11-03T21:15:16.692Z,88.88
2018-11-03T21:17:45.214Z,88.78
2018-11-03T21:20:13.640Z,88.85
2018-11-03T21:22:42.149Z,89.06
2018-11-03T21:25:10.608Z,88.57
2018-11-03T21:27:39.056Z,88.88
2018-11-03T21:30:08.823Z,88.81
2018-11-03T21:32:37.317Z,88.62
2018-11-03T21:35:06.030Z,88.87
2018-11-03T21:37:34.485Z,88.94
2018-11-03T21:40:02.995Z,89.26
2018-11-03T21:42:31.433Z,88.73
2018-11-03T21:44:59.980Z,88.95
2018-11-03T21:47:28.455Z,89.49
2018-11-03T21:49:56.906Z,89.64
2018-11-03T21:52:25.359Z,89.58
2018-11-03T21:54:53.871Z,89.42
2018-11-03T21:57:22.326Z,89.61
2018-11-03T21:59:50.857Z,89.77
2018-11-03T22:02:19.309Z,89.33
2018-11-03T22:04:47.785Z,88.62
2018-11-03T22:07:16.266Z,89.15
2018-11-03T22:09:44.738Z,89.80
2018-11-03T22:12:13.940Z,89.77
2018-11-03T22:14:42.384Z,89.38
2018-11-03T22:17:10.791Z,89.37
2018-11-03T22:19:39.249Z,89.08
2018-11-03T22:22:07.680Z,89.21
2018-11-03T22:24:36.181Z,89.05
2018-11-03T22:27:04.905Z,89.18
2018-11-03T22:29:36.310Z,89.49
2018-11-03T22:32:04.872Z,89.48
2018-11-03T22:34:33.358Z,89.49
2018-11-03T22:37:01.771Z,90.34
2018-11-03T22:39:30.173Z,89.40
2018-11-03T22:41:58.650Z,89.78
2018-11-03T22:44:27.090Z,89.30
2018-11-03T22:46:55.607Z,89.28
2018-11-03T22:49:23.999Z,89.74
2018-11-03T22:51:52.509Z,89.75
2018-11-03T22:54:20.886Z,89.78
2018-11-03T22:56:49.333Z,89.33
2018-11-03T22:59:17.887Z,89.67
2018-11-03T23:01:46.326Z,89.36
2018-11-03T23:04:14.772Z,89.41
2018-11-03T23:06:43.183Z,89.58
2018-11-03T23:09:12.206Z,89.29
2018-11-03T23:11:40.984Z,89.88
2018-11-03T23:14:09.473Z,89.61
2018-11-03T23:16:38.477Z,89.56
2018-11-03T23:19:06.931Z,89.80
2018-11-03T23:21:35.376Z,89.71
2018-11-03T23:24:03.836Z,90.23
2018-11-03T23:26:32.302Z,89.47
2018-11-03T23:29:00.713Z,90.05
2018-11-03T23:31:29.159Z,89.74
2018-11-03T23:33:57.537Z,89.65
2018-11-03T23:36:26.014Z,89.73
2018-11-03T23:38:54.436Z,89.98
2018-11-03T23:41:22.903Z,90.03
2018-11-03T23:43:51.398Z,90.54
2018-11-03T23:46:19.826Z,89.72
2018-11-03T23:48:48.336Z,89.93
2018-11-03T23:51:16.669Z,90.20
2018-11-03T23:53:45.102Z,90.23
2018-11-03T23:56:13.553Z,90.78
2018-11-03T23:58:42.013Z,90.20
